Reedsburg, Wisconsin
Current Conditions -  °F | °C
As of 12:15 PM on Thursday 29 Jan 2015 (Local Time) from KC35 Reporting Station
Overcast Overcast  
Wind Chill: 23°   Ceiling: 2100
Heat Index: 33°   Visibility: 10mi
Dew Point: 26°   Wind: 14mph
Humidity: 78%   Direction: 330°NNW
Pressure: 30.02"   Gusts: 22mph
Location:  43.53°N, 90°W
Report Text: KC35 291815Z AUTO 33012G19KT 10SM OVC021 00/M03 A3002 RMK AO2 T00031032
Loading
Personal Weather Stations






























Interactive Weather Map New forecast layout! Learn more

10-Day Weather Forecast

Advertisements
Track Severe Weather on mobile